Terminal Aerodrome Forecast
Issued by NWS Charleston, WV

Current Version | Previous Version | Text Only | Print | Product List | Glossary Off
Versions: 1 2 3 4 5 6 7 8 9 10 11 12 13 14 15 16 17 18 19 20 21 22 23 24 25

001
FTUS41 KRLX 252325
TAFHTS
TAF
KHTS 252325Z 2600/2624 00000KT P6SM BKN040
     FM260200 00000KT P6SM SKC
     FM261000 00000KT 3SM BR SKC
     FM261100 00000KT 1 1/2SM BR SCT001
     FM261300 00000KT P6SM SKC
     FM261600 19005KT P6SM FEW035
     FM261900 18006KT P6SM SKC=

USA.gov is the U.S. government's official web portal to all federal, state and local government web resources and services.